Decoded Metar for KITR (BURLINGTON in CO, USA) (IATA:ITR) | Meteo·Mobile Aviation Weather
aviador You're here:

KITR Decoded Metar

BURLINGTON in CO, USA
Report Time2018-12-13 02:53:00
UTC Time2018-12-13 03:31:39
Flight Rules vfr VFR
Wind030° at 11 kt
W.Decomp.*RWY 33: 7.1 kt HW 8.4 kt RCW
W.Rank030° ranks 25
Current wind is above 030° avg. (10.7)
Visibility9999 m
Phenomena:N/A
Clouds:N/A
Expected CloudBase > 4,000 ft AGL from Temp-Dew spread
CeilingNone
Temp01°C (ISA -6)
Dew Point-9°C (48% RH)
AAT-5.9°C
QNH1008 hPa
Density Alt3,737 ft
Elevation4,196 ft
Report Wrong Elevation
Raw Report
KITR 130253Z AUTO 03011KT 10SM CLR 01/M09 A2977 RMK AO2 SLP092
T00111089 53028=

Extra information for KITR:More info

Metar Taf Metar & Taf Last 4 Metars F.Rules Stats Wind Profile Meteogram Temp Stats Airport Information Weather charts Add Link Nearby VenuesMetar ALERT Operation Metar Decoded Social comments

AIRNAV info for KITR